createdAt,value
2024-02-21T00:01:34.829Z,30.10
2024-02-21T00:04:02.242Z,30.00
2024-02-21T00:06:29.385Z,29.90
2024-02-21T00:08:56.411Z,29.00
2024-02-21T00:11:23.582Z,29.10
2024-02-21T00:13:52.044Z,29.30
2024-02-21T00:16:19.157Z,30.00
2024-02-21T00:18:47.058Z,30.00
2024-02-21T00:21:18.987Z,29.00
2024-02-21T00:23:51.939Z,28.20
2024-02-21T00:26:19.098Z,29.30
2024-02-21T00:28:46.141Z,28.50
2024-02-21T00:31:14.759Z,27.90
2024-02-21T00:33:43.769Z,26.80
2024-02-21T00:36:10.837Z,26.80
2024-02-21T00:38:37.840Z,26.50
2024-02-21T00:41:05.007Z,27.10
2024-02-21T00:43:32.046Z,26.20
2024-02-21T00:45:59.189Z,25.80
2024-02-21T00:48:26.585Z,26.40
2024-02-21T00:50:53.781Z,26.50
2024-02-21T00:53:21.244Z,26.20
2024-02-21T00:55:48.206Z,26.10
2024-02-21T00:58:15.341Z,26.30
2024-02-21T01:00:42.481Z,26.30
2024-02-21T01:03:12.315Z,26.30
2024-02-21T01:05:41.180Z,26.40
2024-02-21T01:08:08.997Z,27.10
2024-02-21T01:10:36.161Z,27.50
2024-02-21T01:13:03.262Z,28.30
2024-02-21T01:15:30.377Z,28.30
2024-02-21T01:17:57.407Z,29.00
2024-02-21T01:20:24.544Z,28.70
2024-02-21T01:22:54.562Z,29.80
2024-02-21T01:25:31.233Z,30.00
2024-02-21T01:27:58.359Z,30.20
2024-02-21T01:30:26.544Z,30.50
2024-02-21T01:32:56.381Z,29.30
2024-02-21T01:35:24.689Z,29.90
2024-02-21T01:37:53.075Z,30.50
2024-02-21T01:40:20.450Z,29.70
2024-02-21T01:42:49.107Z,29.00
2024-02-21T01:45:19.166Z,28.40
2024-02-21T01:47:46.936Z,27.60
2024-02-21T01:50:15.993Z,28.10
2024-02-21T01:52:47.893Z,28.10
2024-02-21T01:55:16.176Z,27.30
2024-02-21T01:57:49.221Z,27.40
2024-02-21T02:00:17.464Z,26.60
2024-02-21T02:02:46.217Z,26.40
2024-02-21T02:05:13.423Z,25.90
2024-02-21T02:07:40.495Z,26.10
2024-02-21T02:10:08.599Z,25.60
2024-02-21T02:12:37.927Z,25.50
2024-02-21T02:15:08.445Z,24.50
2024-02-21T02:17:37.851Z,24.80
2024-02-21T02:20:06.459Z,25.10
2024-02-21T02:22:37.727Z,26.20
2024-02-21T02:25:08.081Z,26.00
2024-02-21T02:27:44.310Z,24.40
2024-02-21T02:30:14.322Z,23.40
2024-02-21T02:32:49.062Z,23.00
2024-02-21T02:35:16.954Z,23.40
2024-02-21T02:37:53.155Z,23.10
2024-02-21T02:40:20.960Z,22.30
2024-02-21T02:42:50.115Z,22.10
2024-02-21T02:45:18.118Z,21.40
2024-02-21T02:47:48.645Z,21.70
2024-02-21T02:50:16.021Z,21.60
2024-02-21T02:52:43.452Z,22.10
2024-02-21T02:55:17.038Z,21.90
2024-02-21T02:57:44.593Z,21.90
2024-02-21T03:00:15.988Z,22.50
2024-02-21T03:02:46.026Z,23.80
2024-02-21T03:05:23.440Z,25.70
2024-02-21T03:07:51.293Z,26.70
2024-02-21T03:10:19.219Z,28.90
2024-02-21T03:12:46.998Z,29.40
2024-02-21T03:15:17.483Z,30.20
2024-02-21T03:17:44.626Z,31.60
2024-02-21T03:20:13.903Z,34.00
2024-02-21T03:22:42.687Z,36.60
2024-02-21T03:25:16.523Z,37.70
2024-02-21T03:27:45.477Z,37.10
2024-02-21T03:30:14.659Z,38.60
2024-02-21T03:32:51.752Z,39.20
2024-02-21T03:35:25.004Z,39.50
2024-02-21T03:37:52.392Z,40.50
2024-02-21T03:40:25.455Z,40.60
2024-02-21T03:42:52.325Z,40.40
2024-02-21T03:45:19.280Z,40.20
2024-02-21T03:47:46.295Z,39.50
2024-02-21T03:50:13.477Z,40.60
2024-02-21T03:52:40.590Z,39.20
2024-02-21T03:55:09.017Z,36.40
2024-02-21T03:57:36.181Z,34.40
2024-02-21T04:00:04.782Z,32.60
2024-02-21T04:02:31.809Z,31.80
2024-02-21T04:05:00.867Z,31.00
2024-02-21T04:07:28.102Z,30.30
2024-02-21T04:09:55.722Z,29.90
2024-02-21T04:12:22.673Z,28.90
2024-02-21T04:14:49.942Z,28.20
2024-02-21T04:17:16.926Z,27.60
2024-02-21T04:19:43.988Z,26.50
2024-02-21T04:22:11.006Z,25.80
2024-02-21T04:24:38.385Z,25.00
2024-02-21T04:27:06.001Z,24.40
2024-02-21T04:29:33.229Z,23.50
2024-02-21T04:32:01.936Z,23.20
2024-02-21T04:34:37.586Z,22.40
2024-02-21T04:37:06.583Z,22.70
2024-02-21T04:39:33.936Z,22.10
2024-02-21T04:42:01.011Z,21.80
2024-02-21T04:44:28.708Z,21.00
2024-02-21T04:46:55.980Z,21.30
2024-02-21T04:49:23.614Z,21.40
2024-02-21T04:51:50.877Z,21.30
2024-02-21T04:54:17.871Z,21.70
2024-02-21T04:56:45.050Z,20.70
2024-02-21T04:59:21.665Z,20.30
2024-02-21T05:01:49.308Z,20.30
2024-02-21T05:04:16.623Z,21.40
2024-02-21T05:06:43.922Z,20.20
2024-02-21T05:09:11.242Z,19.30
2024-02-21T05:11:41.368Z,19.00
2024-02-21T05:14:08.490Z,17.90
2024-02-21T05:16:35.997Z,17.70
2024-02-21T05:19:04.233Z,17.60
2024-02-21T05:21:31.214Z,17.80
2024-02-21T05:23:58.310Z,17.70
2024-02-21T05:26:28.923Z,17.70
2024-02-21T05:28:56.102Z,16.50
2024-02-21T05:31:24.613Z,16.40
2024-02-21T05:33:52.531Z,16.70
2024-02-21T05:36:19.782Z,15.80
2024-02-21T05:38:46.939Z,15.90
2024-02-21T05:41:14.044Z,14.90
2024-02-21T05:43:42.146Z,15.10
2024-02-21T05:46:09.167Z,14.10
2024-02-21T05:48:39.495Z,13.80
2024-02-21T05:51:10.116Z,14.70
2024-02-21T05:53:41.775Z,14.40
2024-02-21T05:56:15.619Z,14.10
2024-02-21T05:58:42.921Z,13.50
2024-02-21T06:01:09.940Z,12.40
2024-02-21T06:03:40.313Z,12.50
2024-02-21T06:06:07.718Z,13.40
2024-02-21T06:08:34.685Z,12.70
2024-02-21T06:11:01.899Z,13.20
2024-02-21T06:13:28.876Z,13.50
2024-02-21T06:15:55.959Z,13.40
2024-02-21T06:18:23.043Z,12.90
2024-02-21T06:20:50.134Z,13.00
2024-02-21T06:23:18.188Z,13.00
2024-02-21T06:25:45.290Z,11.20
2024-02-21T06:28:12.164Z,10.50
2024-02-21T06:30:41.717Z,10.80
2024-02-21T06:33:14.616Z,10.40
2024-02-21T06:35:44.648Z,10.20
2024-02-21T06:38:11.906Z,8.90
2024-02-21T06:40:40.917Z,9.80
2024-02-21T06:43:08.271Z,8.60
2024-02-21T06:45:35.972Z,7.40
2024-02-21T06:48:03.600Z,5.60
2024-02-21T06:50:30.731Z,6.00
2024-02-21T06:52:57.874Z,5.20
2024-02-21T06:55:24.933Z,4.50
2024-02-21T06:57:52.092Z,4.40
2024-02-21T07:02:46.457Z,1.50
2024-02-21T07:05:13.563Z,1.40
2024-02-21T07:07:41.661Z,2.10
2024-02-21T07:10:09.160Z,1.00
2024-02-21T07:12:38.341Z,1.00
2024-02-21T07:15:07.693Z,1.00
2024-02-21T07:17:35.005Z,1.00
2024-02-21T07:20:02.793Z,1.00
2024-02-21T07:22:32.413Z,1.00
2024-02-21T07:25:00.140Z,1.00
2024-02-21T07:27:31.991Z,1.00
2024-02-21T07:29:59.138Z,1.00
2024-02-21T07:32:27.139Z,1.00
2024-02-21T07:34:55.149Z,1.00
2024-02-21T07:37:23.083Z,1.00
2024-02-21T07:39:50.308Z,1.00
2024-02-21T07:42:17.359Z,1.00
2024-02-21T07:44:44.405Z,1.00
2024-02-21T07:47:11.492Z,1.00
2024-02-21T07:49:47.146Z,1.00
2024-02-21T07:52:14.325Z,1.00
2024-02-21T07:54:42.243Z,1.00
2024-02-21T07:57:09.758Z,1.00
2024-02-21T07:59:37.861Z,1.00
2024-02-21T08:02:08.156Z,1.00
2024-02-21T08:04:37.851Z,1.00
2024-02-21T08:07:07.419Z,1.00
2024-02-21T08:09:34.778Z,1.00
2024-02-21T08:12:02.032Z,1.00
2024-02-21T08:14:29.232Z,1.00
2024-02-21T08:16:57.283Z,1.00
2024-02-21T08:19:24.546Z,1.00
2024-02-21T08:21:51.822Z,1.00
2024-02-21T08:24:19.105Z,1.00
2024-02-21T08:26:46.200Z,1.00
2024-02-21T08:29:13.586Z,1.00
2024-02-21T08:31:41.703Z,1.00
2024-02-21T08:34:09.800Z,1.00
2024-02-21T08:36:38.255Z,1.00
2024-02-21T08:39:06.282Z,1.00
2024-02-21T08:41:47.595Z,1.00
2024-02-21T08:44:25.219Z,1.00
2024-02-21T08:46:52.215Z,1.00
2024-02-21T08:49:19.356Z,1.00
2024-02-21T08:51:47.494Z,1.00
2024-02-21T08:54:14.536Z,1.00
2024-02-21T08:56:41.558Z,1.00
2024-02-21T08:59:08.511Z,1.00
2024-02-21T09:01:36.736Z,1.00
2024-02-21T09:04:04.491Z,1.00
2024-02-21T09:06:31.752Z,1.00
2024-02-21T09:08:59.462Z,1.00
2024-02-21T09:11:28.954Z,1.00
2024-02-21T09:13:56.557Z,1.00
2024-02-21T09:16:24.939Z,1.00
2024-02-21T09:18:52.283Z,1.00
2024-02-21T09:21:19.715Z,1.00
2024-02-21T09:23:46.992Z,1.00
2024-02-21T09:26:17.481Z,1.00
2024-02-21T09:28:47.638Z,1.00
2024-02-21T09:31:16.008Z,1.00
2024-02-21T09:33:45.492Z,1.00
2024-02-21T09:36:13.361Z,1.00
2024-02-21T09:38:42.725Z,1.00
2024-02-21T09:41:19.901Z,1.00
2024-02-21T09:43:51.496Z,1.00
2024-02-21T09:46:20.352Z,1.00
2024-02-21T09:49:18.248Z,1.00
2024-02-21T09:51:46.349Z,1.00
2024-02-21T09:54:16.772Z,1.00
2024-02-21T09:56:47.625Z,1.00
2024-02-21T09:59:17.914Z,1.00
2024-02-21T10:01:48.575Z,1.00
2024-02-21T10:04:15.856Z,1.00
2024-02-21T10:06:43.288Z,1.00
2024-02-21T10:09:10.404Z,1.00
2024-02-21T10:11:38.472Z,1.00
2024-02-21T10:14:10.086Z,1.00
2024-02-21T10:16:40.346Z,1.00
2024-02-21T10:19:07.830Z,1.00
2024-02-21T10:21:34.989Z,1.00
2024-02-21T10:24:02.228Z,1.00
2024-02-21T10:26:29.191Z,1.00
2024-02-21T10:28:57.098Z,1.00
2024-02-21T10:31:29.378Z,1.00
2024-02-21T10:34:07.733Z,1.00
2024-02-21T10:36:36.121Z,1.00
2024-02-21T10:39:03.287Z,1.00
2024-02-21T10:41:32.798Z,1.00
2024-02-21T10:44:03.438Z,1.00
2024-02-21T10:46:33.588Z,1.00
2024-02-21T10:49:28.209Z,1.00
2024-02-21T10:52:47.409Z,1.00
2024-02-21T10:55:33.631Z,1.00
2024-02-21T10:58:00.976Z,1.00
2024-02-21T11:00:31.513Z,1.00
2024-02-21T11:03:00.650Z,1.00
2024-02-21T11:05:29.542Z,1.00
2024-02-21T11:07:57.223Z,1.00
2024-02-21T11:10:26.073Z,1.00
2024-02-21T11:13:11.560Z,1.00
2024-02-21T11:15:38.984Z,1.00
2024-02-21T11:18:06.273Z,1.00
2024-02-21T11:20:35.660Z,1.00
2024-02-21T11:23:02.798Z,1.00
2024-02-21T11:25:35.342Z,1.00
2024-02-21T11:28:08.319Z,1.00
2024-02-21T11:30:40.122Z,1.00
2024-02-21T11:33:11.148Z,1.00
2024-02-21T11:35:39.284Z,1.00
2024-02-21T11:38:18.210Z,1.00
2024-02-21T11:40:48.252Z,1.00
2024-02-21T11:43:18.393Z,1.00
2024-02-21T11:45:45.569Z,1.00
2024-02-21T11:48:12.652Z,1.00
2024-02-21T11:50:41.049Z,1.00
2024-02-21T11:53:08.424Z,1.00
2024-02-21T11:55:36.064Z,1.00
2024-02-21T11:58:03.986Z,1.00
2024-02-21T12:03:03.533Z,1.00
2024-02-21T12:05:31.297Z,1.00
2024-02-21T12:07:59.717Z,1.00
2024-02-21T12:10:30.200Z,1.00
2024-02-21T12:13:10.559Z,1.00
2024-02-21T12:15:37.869Z,1.00
2024-02-21T12:18:06.065Z,1.00
2024-02-21T12:20:37.529Z,1.00
2024-02-21T12:23:05.665Z,1.00
2024-02-21T12:25:32.861Z,1.00
2024-02-21T12:28:01.893Z,1.00
2024-02-21T12:30:42.478Z,1.00
2024-02-21T12:33:10.658Z,1.00
2024-02-21T12:35:38.707Z,1.00
2024-02-21T12:38:06.447Z,1.00
2024-02-21T12:40:34.250Z,1.00
2024-02-21T12:43:04.585Z,1.00
2024-02-21T12:45:31.817Z,1.00
2024-02-21T12:47:59.159Z,1.00
2024-02-21T12:50:27.023Z,1.00
2024-02-21T12:52:54.216Z,1.00
2024-02-21T12:55:21.381Z,1.00
2024-02-21T12:57:48.589Z,1.00
2024-02-21T13:00:16.047Z,1.00
2024-02-21T13:02:44.143Z,1.00
2024-02-21T13:05:11.496Z,1.00
2024-02-21T13:07:38.608Z,1.00
2024-02-21T13:10:08.878Z,1.00
2024-02-21T13:12:37.950Z,1.00
2024-02-21T13:15:06.205Z,1.00
2024-02-21T13:17:33.515Z,1.00
2024-02-21T13:20:01.498Z,1.00
2024-02-21T13:22:28.930Z,1.00
2024-02-21T13:24:58.086Z,1.00
2024-02-21T13:27:25.555Z,1.00
2024-02-21T13:29:52.765Z,1.00
2024-02-21T13:32:20.959Z,1.00
2024-02-21T13:34:48.918Z,1.00
2024-02-21T13:37:16.698Z,1.00
2024-02-21T13:39:43.863Z,1.00
2024-02-21T13:42:10.991Z,1.00
2024-02-21T13:44:38.722Z,1.00
2024-02-21T13:47:06.228Z,1.00
2024-02-21T13:49:33.950Z,1.00
2024-02-21T13:52:01.498Z,1.00
2024-02-21T13:54:28.487Z,1.00
2024-02-21T13:56:55.752Z,1.00
2024-02-21T13:59:22.720Z,1.00
2024-02-21T14:01:49.746Z,1.00
2024-02-21T14:04:16.778Z,1.00
2024-02-21T14:06:45.034Z,1.00
2024-02-21T14:09:12.284Z,1.00
2024-02-21T14:11:41.092Z,1.00
2024-02-21T14:14:08.360Z,1.00
2024-02-21T14:16:35.521Z,1.00
2024-02-21T14:19:03.360Z,1.00
2024-02-21T14:21:31.652Z,1.00
2024-02-21T14:23:59.405Z,1.00
2024-02-21T14:26:26.437Z,1.00
2024-02-21T14:28:53.568Z,1.00
2024-02-21T14:31:22.373Z,1.00
2024-02-21T14:33:50.373Z,1.00
2024-02-21T14:36:18.279Z,1.00
2024-02-21T14:38:45.764Z,1.00
2024-02-21T14:41:15.699Z,1.00
2024-02-21T14:43:44.525Z,1.00
2024-02-21T14:46:13.516Z,1.00
2024-02-21T14:48:40.553Z,1.00
2024-02-21T14:51:07.657Z,1.00
2024-02-21T14:53:34.732Z,1.00
2024-02-21T14:56:01.895Z,1.00
2024-02-21T14:58:29.177Z,1.00
2024-02-21T15:00:56.229Z,1.00
2024-02-21T15:03:23.411Z,1.00
2024-02-21T15:05:50.641Z,1.00
2024-02-21T15:08:19.572Z,1.00
2024-02-21T15:10:46.770Z,1.00
2024-02-21T15:13:13.933Z,1.00
2024-02-21T15:15:41.299Z,1.00
2024-02-21T15:18:08.437Z,1.00
2024-02-21T15:20:35.679Z,1.00
2024-02-21T15:23:06.351Z,1.00
2024-02-21T15:25:38.288Z,1.00
2024-02-21T15:28:07.875Z,1.00
2024-02-21T15:30:36.386Z,1.00
2024-02-21T15:33:08.699Z,1.00
2024-02-21T15:35:36.306Z,1.00
2024-02-21T15:38:14.227Z,1.00
2024-02-21T15:40:42.194Z,1.00
2024-02-21T15:43:09.880Z,1.00
2024-02-21T15:45:37.329Z,1.00
2024-02-21T15:48:06.907Z,1.00
2024-02-21T15:50:37.175Z,1.00
2024-02-21T15:53:04.569Z,1.00
2024-02-21T15:55:31.878Z,1.00
2024-02-21T15:57:59.083Z,1.00
2024-02-21T16:00:26.159Z,1.00
2024-02-21T16:02:53.136Z,1.00
2024-02-21T16:05:20.293Z,1.00
2024-02-21T16:07:47.492Z,1.00
2024-02-21T16:10:14.609Z,1.00
2024-02-21T16:12:42.599Z,1.00
2024-02-21T16:15:11.999Z,1.00
2024-02-21T16:17:40.860Z,1.00
2024-02-21T16:20:10.938Z,1.00
2024-02-21T16:22:38.428Z,1.00
2024-02-21T16:25:05.973Z,1.00
2024-02-21T16:27:33.808Z,1.00
2024-02-21T16:30:00.853Z,1.00
2024-02-21T16:32:29.538Z,1.00
2024-02-21T16:34:57.321Z,1.00
2024-02-21T16:37:25.471Z,1.00
2024-02-21T16:39:53.788Z,1.00
2024-02-21T16:42:22.184Z,1.00
2024-02-21T16:44:49.709Z,1.00
2024-02-21T16:47:18.187Z,1.00
2024-02-21T16:49:45.308Z,1.00
2024-02-21T16:52:12.349Z,1.00
2024-02-21T16:54:39.420Z,1.00
2024-02-21T16:57:07.021Z,1.00
2024-02-21T16:59:34.357Z,1.00
2024-02-21T17:02:03.214Z,1.00
2024-02-21T17:04:30.565Z,1.00
2024-02-21T17:06:57.715Z,1.00
2024-02-21T17:09:27.109Z,1.00
2024-02-21T17:11:54.710Z,1.00
2024-02-21T17:14:23.421Z,1.00
2024-02-21T17:16:50.529Z,1.00
2024-02-21T17:19:17.637Z,1.00
2024-02-21T17:21:44.610Z,1.00
2024-02-21T17:24:11.772Z,1.00
2024-02-21T17:26:38.740Z,1.00
2024-02-21T17:29:08.376Z,1.00
2024-02-21T17:31:39.226Z,1.00
2024-02-21T17:34:09.599Z,1.00
2024-02-21T17:36:38.388Z,1.00
2024-02-21T17:39:06.101Z,1.00
2024-02-21T17:41:33.183Z,1.00
2024-02-21T17:44:00.290Z,1.00
2024-02-21T17:46:27.327Z,1.00
2024-02-21T17:48:54.430Z,1.00
2024-02-21T17:51:21.646Z,1.00
2024-02-21T17:53:48.675Z,1.00
2024-02-21T17:56:16.400Z,1.00
2024-02-21T17:58:43.452Z,1.00
2024-02-21T18:01:10.604Z,1.00
2024-02-21T18:03:37.785Z,1.00
2024-02-21T18:06:05.643Z,1.00
2024-02-21T18:08:33.980Z,1.00
2024-02-21T18:11:01.631Z,1.00
2024-02-21T18:13:32.059Z,1.00
2024-02-21T18:16:09.680Z,1.00
2024-02-21T18:18:37.250Z,1.00
2024-02-21T18:21:04.518Z,1.00
2024-02-21T18:23:31.529Z,1.00
2024-02-21T18:26:00.604Z,1.00
2024-02-21T18:28:28.206Z,1.00
2024-02-21T18:30:56.909Z,1.00
2024-02-21T18:33:24.323Z,1.00
2024-02-21T18:35:52.467Z,1.00
2024-02-21T18:38:19.733Z,1.00
2024-02-21T18:40:50.916Z,1.00
2024-02-21T18:43:18.138Z,1.00
2024-02-21T18:45:45.096Z,1.00
2024-02-21T18:48:15.964Z,1.00
2024-02-21T18:50:43.831Z,1.00
2024-02-21T18:53:11.489Z,1.00
2024-02-21T18:55:38.585Z,1.00
2024-02-21T18:58:06.090Z,1.00
2024-02-21T19:00:33.328Z,1.00
2024-02-21T19:03:00.511Z,1.00
2024-02-21T19:05:27.660Z,1.00
2024-02-21T19:07:54.837Z,1.00
2024-02-21T19:10:22.127Z,1.00
2024-02-21T19:12:49.272Z,1.00
2024-02-21T19:15:16.412Z,1.00
2024-02-21T19:17:44.098Z,1.00
2024-02-21T19:20:12.619Z,1.00
2024-02-21T19:22:40.866Z,1.00
2024-02-21T19:25:14.331Z,1.00
2024-02-21T19:27:41.987Z,1.00
2024-02-21T19:30:14.191Z,1.00
2024-02-21T19:32:46.475Z,1.00
2024-02-21T19:35:14.920Z,1.00
2024-02-21T19:37:42.625Z,1.00
2024-02-21T19:40:10.969Z,1.00
2024-02-21T19:42:38.966Z,1.00
2024-02-21T19:45:07.108Z,1.00
2024-02-21T19:47:34.105Z,1.00
2024-02-21T19:50:02.299Z,1.00
2024-02-21T19:52:29.534Z,1.00
2024-02-21T19:54:58.284Z,1.00
2024-02-21T19:57:25.458Z,1.00
2024-02-21T19:59:53.437Z,1.00
2024-02-21T20:02:20.482Z,1.00
2024-02-21T20:04:47.618Z,1.00
2024-02-21T20:07:14.578Z,1.00
2024-02-21T20:09:44.757Z,1.00
2024-02-21T20:12:11.916Z,1.00
2024-02-21T20:14:39.169Z,1.00
2024-02-21T20:17:06.370Z,1.00
2024-02-21T20:19:33.445Z,1.00
2024-02-21T20:22:02.755Z,1.00
2024-02-21T20:24:36.007Z,1.00
2024-02-21T20:27:07.660Z,1.00
2024-02-21T20:29:34.751Z,1.00
2024-02-21T20:32:03.784Z,1.00
2024-02-21T20:34:33.075Z,1.00
2024-02-21T20:37:00.711Z,1.00
2024-02-21T20:39:32.049Z,1.00
2024-02-21T20:41:59.237Z,1.00
2024-02-21T20:44:26.305Z,1.00
2024-02-21T20:46:53.378Z,1.00
2024-02-21T20:49:20.600Z,1.00
2024-02-21T20:51:47.701Z,1.00
2024-02-21T20:54:14.678Z,1.00
2024-02-21T20:56:41.805Z,1.00
2024-02-21T20:59:08.856Z,1.00
2024-02-21T21:01:41.424Z,1.00
2024-02-21T21:04:11.766Z,1.00
2024-02-21T21:06:38.886Z,1.00
2024-02-21T21:09:09.677Z,1.70
2024-02-21T21:11:46.199Z,2.90
2024-02-21T21:14:14.619Z,3.80
2024-02-21T21:16:41.867Z,7.60
2024-02-21T21:19:09.805Z,8.00
2024-02-21T21:21:37.224Z,9.10
2024-02-21T21:24:04.698Z,10.90
2024-02-21T21:26:31.874Z,11.20
2024-02-21T21:28:59.077Z,11.50
2024-02-21T21:31:27.714Z,10.50
2024-02-21T21:33:56.079Z,10.40
2024-02-21T21:36:24.020Z,10.50
2024-02-21T21:38:51.173Z,9.20
2024-02-21T21:41:18.323Z,10.70
2024-02-21T21:43:45.429Z,11.30
2024-02-21T21:46:15.179Z,10.30
2024-02-21T21:48:45.983Z,11.10
2024-02-21T21:51:15.302Z,11.70
2024-02-21T21:53:44.837Z,13.50
2024-02-21T21:56:12.551Z,14.10
2024-02-21T21:58:40.164Z,15.00
2024-02-21T22:01:13.501Z,14.70
2024-02-21T22:03:40.474Z,17.70
2024-02-21T22:06:07.915Z,18.00
2024-02-21T22:08:36.857Z,17.70
2024-02-21T22:11:08.170Z,19.20
2024-02-21T22:13:36.208Z,21.70
2024-02-21T22:16:05.167Z,23.50
2024-02-21T22:18:34.018Z,25.40
2024-02-21T22:21:01.341Z,29.20
2024-02-21T22:23:28.433Z,30.70
2024-02-21T22:25:55.799Z,35.60
2024-02-21T22:28:24.096Z,36.20
2024-02-21T22:30:52.438Z,40.80
2024-02-21T22:33:20.824Z,45.40
2024-02-21T22:35:49.061Z,46.70
2024-02-21T22:38:16.480Z,49.80
2024-02-21T22:40:43.604Z,53.50
2024-02-21T22:43:10.611Z,56.00
2024-02-21T22:45:37.750Z,57.00
2024-02-21T22:48:05.598Z,60.70
2024-02-21T22:50:33.036Z,63.50
2024-02-21T22:52:59.963Z,68.80
2024-02-21T22:55:27.004Z,71.10
2024-02-21T22:57:54.074Z,71.80
2024-02-21T23:00:21.146Z,72.10
2024-02-21T23:02:48.205Z,73.90
2024-02-21T23:05:17.570Z,77.70
2024-02-21T23:07:50.715Z,78.20
2024-02-21T23:10:17.875Z,81.40
2024-02-21T23:12:45.159Z,87.40
2024-02-21T23:15:12.134Z,89.30
2024-02-21T23:17:39.203Z,90.80
2024-02-21T23:20:10.419Z,91.80
2024-02-21T23:22:38.230Z,92.60
2024-02-21T23:25:05.942Z,94.40
2024-02-21T23:27:33.580Z,95.60
2024-02-21T23:30:00.547Z,96.90
2024-02-21T23:32:30.505Z,98.50
2024-02-21T23:35:00.182Z,99.90
2024-02-21T23:37:27.565Z,99.90
2024-02-21T23:39:56.038Z,99.90
2024-02-21T23:42:23.088Z,99.90
2024-02-21T23:44:52.348Z,99.90
2024-02-21T23:47:19.538Z,99.90
2024-02-21T23:49:47.089Z,99.90
2024-02-21T23:52:15.065Z,99.90
2024-02-21T23:54:42.097Z,99.90
2024-02-21T23:57:09.430Z,99.90
2024-02-21T23:59:39.388Z,99.90
